Time;durP1;ratioP1;P1;durP2;ratioP2;P2;SDS_P1;SDS_P2;PMS_P1;PMS_P2;Temp;Humidity;BMP_temperature;BMP_pressure;BME280_temperature;BME280_humidity;BME280_pressure;Samples;Min_cycle;Max_cycle;Signal;HPM_P1;HPM_P2
2021/03/26 00:01:00;;;;;;;57.00;30.23;;;11.60;99.90;;;;;;4994767;28;20881;-58
2021/03/26 00:03:32;;;;;;;51.30;28.60;;;11.60;99.90;;;;;;4991229;28;20932;-51
2021/03/26 00:06:04;;;;;;;49.23;29.53;;;11.60;99.90;;;;;;4983856;28;20826;-51
2021/03/26 00:08:32;;;;;;;49.53;28.50;;;11.60;99.90;;;;;;4984164;28;20784;-52
2021/03/26 00:11:01;;;;;;;53.83;29.53;;;11.50;99.90;;;;;;4982578;28;20905;-52
2021/03/26 00:13:31;;;;;;;64.90;31.97;;;11.50;99.90;;;;;;4987354;28;20819;-50
2021/03/26 00:16:00;;;;;;;53.40;28.73;;;11.40;99.90;;;;;;4979404;28;21173;-50
2021/03/26 00:18:28;;;;;;;57.63;32.10;;;11.40;99.90;;;;;;4983887;28;20799;-47
2021/03/26 00:20:57;;;;;;;62.67;32.90;;;11.30;99.90;;;;;;4987596;28;20868;-45
2021/03/26 00:23:26;;;;;;;49.37;28.63;;;11.30;99.90;;;;;;4987537;28;20775;-47
2021/03/26 00:25:55;;;;;;;48.07;27.67;;;11.30;99.90;;;;;;4986517;28;20831;-52
2021/03/26 00:28:23;;;;;;;55.67;30.07;;;11.30;99.90;;;;;;4983560;28;20745;-53
2021/03/26 00:30:53;;;;;;;60.50;31.90;;;11.30;99.90;;;;;;4986366;28;20906;-48
2021/03/26 00:33:21;;;;;;;58.23;31.83;;;11.20;99.90;;;;;;4982132;28;20761;-47
2021/03/26 00:35:50;;;;;;;55.30;30.63;;;11.20;99.90;;;;;;4986035;28;20788;-47
2021/03/26 00:38:19;;;;;;;59.73;30.43;;;11.20;99.90;;;;;;4980218;28;20807;-48
2021/03/26 00:40:47;;;;;;;57.90;30.20;;;11.10;99.90;;;;;;4987349;28;20779;-50
2021/03/26 00:43:15;;;;;;;54.87;34.07;;;11.10;99.90;;;;;;4986756;28;20846;-53
2021/03/26 00:45:44;;;;;;;56.17;31.43;;;11.10;99.90;;;;;;4983473;28;20458;-50
2021/03/26 00:48:15;;;;;;;51.37;29.40;;;11.10;99.90;;;;;;4984346;28;21716;-53
2021/03/26 00:50:45;;;;;;;48.10;28.67;;;11.00;99.90;;;;;;4985481;28;20789;-50
2021/03/26 00:53:16;;;;;;;53.47;30.80;;;11.00;99.90;;;;;;4985966;28;20751;-55
2021/03/26 00:55:45;;;;;;;51.83;30.30;;;11.00;99.90;;;;;;4980720;28;20832;-51
2021/03/26 00:58:14;;;;;;;53.20;30.60;;;11.00;99.90;;;;;;4981515;28;20932;-53
2021/03/26 01:00:42;;;;;;;57.13;29.37;;;11.00;99.90;;;;;;4975793;28;20844;-48
2021/03/26 01:03:11;;;;;;;56.67;30.70;;;10.90;99.90;;;;;;4988110;28;20784;-50
2021/03/26 01:05:45;;;;;;;48.47;30.23;;;10.90;99.90;;;;;;4995217;28;20842;-50
2021/03/26 01:08:14;;;;;;;57.03;32.37;;;10.90;99.90;;;;;;4994237;28;20554;-50
2021/03/26 01:10:47;;;;;;;50.00;30.73;;;10.90;99.90;;;;;;4994878;28;20805;-53
2021/03/26 01:13:16;;;;;;;60.37;31.37;;;10.90;99.90;;;;;;4998120;28;20787;-53
2021/03/26 01:15:46;;;;;;;57.50;30.03;;;10.90;99.90;;;;;;4999192;28;20903;-54
2021/03/26 01:18:24;;;;;;;53.50;31.70;;;10.90;99.90;;;;;;4998666;28;20461;-54
2021/03/26 01:20:55;;;;;;;57.53;33.13;;;10.90;99.90;;;;;;4999006;28;20835;-52
2021/03/26 01:23:23;;;;;;;55.23;32.17;;;10.80;99.90;;;;;;4999092;28;20616;-54
2021/03/26 01:25:52;;;;;;;55.57;30.30;;;10.80;99.90;;;;;;5000053;28;20778;-50
2021/03/26 01:28:22;;;;;;;63.70;32.67;;;10.80;99.90;;;;;;4989003;28;20791;-51
2021/03/26 01:30:52;;;;;;;56.00;30.07;;;10.80;99.90;;;;;;4979796;28;20475;-51
2021/03/26 01:33:20;;;;;;;57.47;31.47;;;10.90;99.90;;;;;;4979755;28;20938;-50
2021/03/26 01:35:48;;;;;;;57.30;29.10;;;10.90;99.90;;;;;;4979264;28;20455;-51
2021/03/26 01:38:19;;;;;;;63.37;32.87;;;10.90;99.90;;;;;;4979739;28;20861;-50
2021/03/26 01:40:51;;;;;;;53.33;29.17;;;10.90;99.90;;;;;;4979507;28;20943;-52
2021/03/26 01:43:21;;;;;;;61.07;32.00;;;10.90;99.90;;;;;;4979299;28;20519;-52
2021/03/26 01:45:50;;;;;;;55.37;30.33;;;10.90;99.90;;;;;;4979213;28;20839;-53
2021/03/26 01:48:24;;;;;;;64.33;31.00;;;10.90;99.90;;;;;;4979197;28;20761;-48
2021/03/26 01:50:54;;;;;;;59.13;32.33;;;11.00;99.90;;;;;;4979178;28;20884;-46
2021/03/26 01:53:24;;;;;;;53.37;28.57;;;10.90;99.90;;;;;;4979388;28;20810;-49
2021/03/26 01:55:55;;;;;;;52.50;29.63;;;10.90;99.90;;;;;;4979007;28;20752;-49
2021/03/26 01:58:25;;;;;;;49.37;28.80;;;10.90;99.90;;;;;;4979478;28;20462;-48
2021/03/26 02:00:56;;;;;;;52.30;29.97;;;10.90;99.90;;;;;;4978799;28;20513;-53
2021/03/26 02:03:32;;;;;;;50.73;28.00;;;10.90;99.90;;;;;;4980192;28;20458;-54
2021/03/26 02:06:02;;;;;;;52.23;27.40;;;10.90;99.90;;;;;;4979753;28;20454;-53
2021/03/26 02:08:34;;;;;;;51.67;30.13;;;10.90;99.90;;;;;;4978395;28;20758;-55
2021/03/26 02:11:07;;;;;;;52.60;29.77;;;10.90;99.90;;;;;;4978301;28;20849;-54
2021/03/26 02:13:36;;;;;;;53.57;34.97;;;11.00;99.90;;;;;;4978684;28;20481;-52
2021/03/26 02:16:07;;;;;;;52.97;29.90;;;11.00;99.90;;;;;;4979180;28;20800;-49
2021/03/26 02:18:38;;;;;;;58.73;28.87;;;11.00;99.90;;;;;;4979051;28;20427;-53
2021/03/26 02:21:09;;;;;;;58.00;31.10;;;11.00;99.90;;;;;;4979024;28;20777;-51
2021/03/26 02:23:40;;;;;;;51.57;29.30;;;11.10;99.90;;;;;;4978158;28;20856;-47
2021/03/26 02:26:15;;;;;;;58.57;32.77;;;11.10;99.90;;;;;;4978951;28;20799;-50
2021/03/26 02:28:44;;;;;;;59.30;31.80;;;11.10;99.90;;;;;;4978055;28;20834;-51
2021/03/26 02:31:13;;;;;;;57.97;30.03;;;11.10;99.90;;;;;;4978242;28;21177;-52
2021/03/26 02:33:42;;;;;;;63.23;32.70;;;11.10;99.90;;;;;;4978931;28;20889;-50
2021/03/26 02:36:42;;;;;;;66.73;31.60;;;11.00;99.90;;;;;;4978244;28;20858;-54
2021/03/26 02:39:27;;;;;;;58.93;31.97;;;11.00;99.90;;;;;;4977965;28;20890;-50
2021/03/26 02:41:59;;;;;;;65.33;33.47;;;11.00;99.90;;;;;;4977745;28;20463;-47
2021/03/26 02:44:35;;;;;;;51.60;29.90;;;11.00;99.90;;;;;;4978186;28;20462;-48
2021/03/26 02:47:11;;;;;;;57.37;32.30;;;10.90;99.90;;;;;;4978205;28;21004;-50
2021/03/26 02:49:46;;;;;;;57.90;30.50;;;10.90;99.90;;;;;;4977708;28;20827;-51
2021/03/26 02:52:36;;;;;;;55.50;30.60;;;10.90;99.90;;;;;;4978102;28;20805;-51
2021/03/26 02:55:13;;;;;;;63.63;33.40;;;10.90;99.90;;;;;;4978314;28;20789;-48
2021/03/26 02:57:45;;;;;;;60.30;32.40;;;10.80;99.90;;;;;;4978031;28;20792;-48
2021/03/26 03:00:22;;;;;;;56.53;32.77;;;10.80;99.90;;;;;;4977852;28;20789;-53
2021/03/26 03:02:51;;;;;;;56.83;31.40;;;10.80;99.90;;;;;;4978237;28;20861;-49
2021/03/26 03:05:26;;;;;;;62.63;33.60;;;10.80;99.90;;;;;;4977637;28;20776;-51
2021/03/26 03:08:00;;;;;;;57.67;30.37;;;10.70;99.90;;;;;;4977361;28;20498;-54
2021/03/26 03:10:33;;;;;;;54.43;31.67;;;10.70;99.90;;;;;;4977634;28;20442;-52
2021/03/26 03:13:08;;;;;;;58.37;32.70;;;10.80;99.90;;;;;;4977416;28;20850;-51
2021/03/26 03:15:43;;;;;;;55.17;30.40;;;10.80;99.90;;;;;;4977647;28;20775;-50
2021/03/26 03:18:18;;;;;;;57.37;29.90;;;10.80;99.90;;;;;;4977701;28;20460;-51
2021/03/26 03:20:54;;;;;;;54.90;30.33;;;10.80;99.90;;;;;;4977866;28;20844;-50
2021/03/26 03:23:27;;;;;;;67.50;33.63;;;10.80;99.90;;;;;;4977562;28;20785;-51
2021/03/26 03:26:01;;;;;;;55.87;30.97;;;10.90;99.90;;;;;;4977635;28;20855;-48
2021/03/26 03:28:35;;;;;;;58.83;31.57;;;10.90;99.90;;;;;;4976078;28;20724;-52
2021/03/26 03:31:15;;;;;;;58.97;32.63;;;10.90;99.90;;;;;;4959361;28;20895;-53
2021/03/26 03:33:52;;;;;;;59.33;33.33;;;10.90;99.90;;;;;;4958306;29;20552;-51
2021/03/26 03:36:25;;;;;;;63.07;32.33;;;10.90;99.90;;;;;;4958053;28;20765;-48
2021/03/26 03:38:57;;;;;;;56.10;31.20;;;10.90;99.90;;;;;;4958578;29;20503;-49
2021/03/26 03:41:34;;;;;;;56.53;29.83;;;11.00;99.90;;;;;;4958911;29;20825;-48
2021/03/26 03:44:13;;;;;;;54.73;30.53;;;11.00;99.90;;;;;;4958328;29;20779;-52
2021/03/26 03:46:47;;;;;;;57.07;31.80;;;11.00;99.90;;;;;;4957790;29;20518;-48
2021/03/26 03:49:24;;;;;;;59.50;31.63;;;11.10;99.90;;;;;;4957486;29;20842;-51
2021/03/26 03:52:00;;;;;;;53.97;31.17;;;11.10;99.90;;;;;;4957924;29;20807;-49
2021/03/26 03:54:32;;;;;;;68.63;31.50;;;11.10;99.90;;;;;;4957697;29;20817;-53
2021/03/26 03:57:04;;;;;;;58.57;30.90;;;11.10;99.90;;;;;;4957440;29;20817;-51
2021/03/26 03:59:38;;;;;;;67.13;33.43;;;11.10;99.90;;;;;;4957784;29;20554;-52
2021/03/26 04:02:11;;;;;;;61.57;34.40;;;11.20;99.90;;;;;;4957784;29;20447;-50
2021/03/26 04:04:45;;;;;;;61.43;31.83;;;11.20;99.90;;;;;;4957225;29;20794;-50
2021/03/26 04:07:17;;;;;;;55.00;30.30;;;11.20;99.90;;;;;;4957704;29;20472;-51
2021/03/26 04:09:50;;;;;;;46.97;25.40;;;11.30;99.90;;;;;;4957281;29;21121;-51
2021/03/26 04:12:24;;;;;;;55.63;31.03;;;11.30;99.90;;;;;;4957301;29;20479;-50
2021/03/26 04:15:01;;;;;;;49.67;28.40;;;11.30;99.90;;;;;;4956987;29;20851;-48
2021/03/26 04:17:37;;;;;;;58.67;29.23;;;11.30;99.90;;;;;;4957334;29;20773;-48
2021/03/26 04:20:09;;;;;;;54.07;30.40;;;11.30;99.90;;;;;;4957441;29;20774;-50
2021/03/26 04:22:42;;;;;;;52.07;30.47;;;11.40;99.90;;;;;;4957026;29;20864;-48
2021/03/26 04:25:17;;;;;;;51.00;29.40;;;11.40;99.90;;;;;;4957553;29;20987;-51
2021/03/26 04:27:49;;;;;;;50.60;28.93;;;11.40;99.90;;;;;;4956835;29;20851;-50
2021/03/26 04:30:22;;;;;;;55.60;30.30;;;11.50;99.90;;;;;;4956640;29;20841;-54
2021/03/26 04:32:51;;;;;;;59.90;29.83;;;11.50;99.90;;;;;;4956621;29;20480;-53
2021/03/26 04:35:20;;;;;;;78.10;33.57;;;11.50;99.90;;;;;;4956758;29;20801;-54
2021/03/26 04:37:53;;;;;;;52.70;31.20;;;11.50;99.90;;;;;;4956261;29;20969;-53
2021/03/26 04:40:29;;;;;;;56.60;30.70;;;11.50;99.90;;;;;;4956638;29;20817;-53
2021/03/26 04:43:05;;;;;;;54.30;31.07;;;11.50;99.90;;;;;;4956673;29;20797;-55
2021/03/26 04:45:42;;;;;;;59.93;33.70;;;11.50;99.90;;;;;;4956795;29;20797;-51
2021/03/26 04:48:17;;;;;;;54.83;30.47;;;11.50;99.90;;;;;;4962224;29;20792;-53
2021/03/26 04:50:53;;;;;;;56.53;31.20;;;11.50;99.90;;;;;;4963177;29;20842;-53
2021/03/26 04:53:26;;;;;;;52.50;31.13;;;11.50;99.90;;;;;;4963049;28;20784;-49
2021/03/26 04:55:57;;;;;;;50.17;30.87;;;11.50;99.90;;;;;;4963487;29;20793;-52
2021/03/26 04:58:29;;;;;;;56.30;31.77;;;11.50;99.90;;;;;;4963515;28;20840;-55
2021/03/26 05:01:01;;;;;;;52.40;31.40;;;11.40;99.90;;;;;;4963111;29;20793;-48
2021/03/26 05:03:34;;;;;;;58.67;34.67;;;11.50;99.90;;;;;;4963805;28;20911;-52
2021/03/26 05:06:09;;;;;;;63.63;31.50;;;11.50;99.90;;;;;;4963318;28;20784;-52
2021/03/26 05:08:40;;;;;;;54.50;31.10;;;11.50;99.90;;;;;;4964354;29;20777;-51
2021/03/26 05:11:10;;;;;;;56.30;31.70;;;11.50;99.90;;;;;;4963479;28;20809;-54
2021/03/26 05:13:44;;;;;;;50.70;29.70;;;11.40;99.90;;;;;;4963689;28;20832;-49
2021/03/26 05:16:21;;;;;;;57.00;32.33;;;11.40;99.90;;;;;;4963391;28;20787;-55
2021/03/26 05:18:54;;;;;;;54.07;31.17;;;11.40;99.90;;;;;;4963180;28;20759;-48
2021/03/26 05:21:28;;;;;;;55.67;29.73;;;11.40;99.90;;;;;;4962902;28;20853;-48
2021/03/26 05:24:02;;;;;;;55.20;30.07;;;11.30;99.90;;;;;;4962980;29;20463;-49
2021/03/26 05:26:33;;;;;;;53.03;30.77;;;11.20;99.90;;;;;;4963668;28;20861;-49
2021/03/26 05:29:04;;;;;;;52.30;31.00;;;11.10;99.90;;;;;;4962275;28;20773;-55
2021/03/26 05:32:00;;;;;;;68.83;32.03;;;11.10;99.90;;;;;;4966223;28;20963;-51
2021/03/26 05:34:36;;;;;;;58.90;32.43;;;10.90;99.90;;;;;;4946373;28;20781;-53
2021/03/26 05:37:16;;;;;;;54.50;30.27;;;10.80;99.90;;;;;;4963410;29;20777;-50
2021/03/26 05:39:47;;;;;;;59.80;31.37;;;10.60;99.90;;;;;;4962943;29;20935;-53
2021/03/26 05:42:43;;;;;;;58.17;33.20;;;10.50;99.90;;;;;;4963365;29;20777;-54
2021/03/26 05:45:41;;;;;;;58.50;32.60;;;10.40;99.90;;;;;;4963387;29;20851;-50
2021/03/26 05:48:32;;;;;;;58.27;34.07;;;10.40;99.90;;;;;;4948359;29;20746;-47
2021/03/26 05:51:39;;;;;;;70.93;34.83;;;10.40;99.90;;;;;;4963440;28;20776;-48
2021/03/26 05:54:26;;;;;;;56.50;32.67;;;10.50;99.90;;;;;;4953145;29;20848;-50
2021/03/26 05:57:06;;;;;;;65.63;32.80;;;10.50;99.90;;;;;;4963087;28;20780;-51
2021/03/26 05:59:49;;;;;;;73.57;35.37;;;10.50;99.90;;;;;;4960058;28;20840;-48
2021/03/26 06:02:42;;;;;;;60.90;34.87;;;10.50;99.90;;;;;;4959848;29;20784;-49
2021/03/26 06:05:47;;;;;;;60.97;35.47;;;10.50;99.90;;;;;;4960078;29;20833;-50
2021/03/26 06:08:52;;;;;;;53.63;33.03;;;10.50;99.90;;;;;;4959803;29;20467;-51
2021/03/26 06:11:38;;;;;;;66.30;34.07;;;10.60;99.90;;;;;;4882044;29;20985;-50
2021/03/26 06:14:26;;;;;;;72.17;36.17;;;10.60;99.90;;;;;;4956595;29;20968;-50
2021/03/26 06:17:29;;;;;;;68.03;35.13;;;10.60;99.90;;;;;;4959964;29;20460;-53
2021/03/26 06:20:22;;;;;;;74.43;34.20;;;10.60;99.90;;;;;;4958818;29;20457;-49
2021/03/26 06:23:15;;;;;;;63.23;37.90;;;10.70;99.90;;;;;;4957386;29;20913;-46
2021/03/26 06:26:15;;;;;;;58.40;33.30;;;10.70;99.90;;;;;;4960279;29;20471;-47
2021/03/26 06:28:49;;;;;;;66.80;35.00;;;10.80;99.90;;;;;;4959742;29;20818;-48
2021/03/26 06:31:33;;;;;;;69.30;35.83;;;10.80;99.90;;;;;;4959536;29;20801;-50
2021/03/26 06:34:32;;;;;;;73.63;37.63;;;10.80;99.90;;;;;;4959236;29;20906;-48
2021/03/26 06:37:29;;;;;;;61.03;35.70;;;10.80;99.90;;;;;;4927873;29;20957;-48
2021/03/26 06:40:26;;;;;;;70.33;36.10;;;10.90;99.90;;;;;;4951229;29;20797;-47
2021/03/26 06:43:14;;;;;;;75.30;39.77;;;10.90;99.90;;;;;;4975856;28;20790;-51
2021/03/26 06:45:56;;;;;;;68.63;38.50;;;11.00;99.90;;;;;;4983545;28;20554;-48
2021/03/26 06:48:35;;;;;;;70.97;39.67;;;11.00;99.90;;;;;;4989971;28;20842;-52
2021/03/26 06:51:17;;;;;;;63.90;38.37;;;11.00;99.90;;;;;;4984621;28;20447;-51
2021/03/26 06:53:51;;;;;;;69.37;37.10;;;11.00;99.90;;;;;;4988780;28;20763;-53
2021/03/26 06:56:52;;;;;;;64.87;37.80;;;10.90;99.90;;;;;;4984318;28;20451;-49
2021/03/26 06:59:44;;;;;;;69.20;36.77;;;10.90;99.90;;;;;;4986752;28;20454;-48
2021/03/26 07:03:01;;;;;;;65.63;35.43;;;10.90;99.90;;;;;;4970695;28;20458;-52
2021/03/26 07:06:04;;;;;;;67.83;36.40;;;10.90;99.90;;;;;;4911861;29;20434;-48
2021/03/26 07:09:02;;;;;;;72.70;38.57;;;11.00;99.90;;;;;;4912310;29;20446;-48
2021/03/26 07:11:45;;;;;;;72.20;38.60;;;10.90;99.90;;;;;;4983154;28;20477;-48
2021/03/26 07:14:34;;;;;;;66.47;34.97;;;11.00;99.90;;;;;;4983748;28;20862;-49
2021/03/26 07:17:47;;;;;;;60.67;35.20;;;11.20;99.90;;;;;;4958840;29;20830;-51
2021/03/26 07:20:53;;;;;;;62.83;36.57;;;11.40;99.90;;;;;;4961891;29;20856;-47
2021/03/26 07:23:50;;;;;;;65.17;35.90;;;11.50;99.90;;;;;;4958970;29;20781;-46
2021/03/26 07:26:29;;;;;;;66.37;34.30;;;11.80;99.90;;;;;;4958995;29;20467;-48
2021/03/26 07:29:28;;;;;;;59.23;34.63;;;12.00;99.90;;;;;;4958690;29;20764;-48
2021/03/26 07:32:19;;;;;;;66.10;36.53;;;12.10;99.90;;;;;;4970794;28;20553;-49
2021/03/26 07:35:22;;;;;;;67.63;36.67;;;12.20;99.90;;;;;;4977394;28;20851;-47
2021/03/26 07:38:04;;;;;;;60.07;34.87;;;12.40;99.90;;;;;;4978506;28;20454;-48
2021/03/26 07:40:41;;;;;;;63.73;35.23;;;12.50;99.90;;;;;;4979455;28;20805;-47
2021/03/26 07:43:29;;;;;;;62.70;34.00;;;12.50;99.90;;;;;;4988864;28;20442;-49
2021/03/26 07:46:26;;;;;;;58.13;32.30;;;12.60;99.90;;;;;;4966864;28;20495;-47
2021/03/26 07:49:28;;;;;;;55.43;35.17;;;12.70;99.90;;;;;;4979887;28;20465;-54
2021/03/26 07:52:03;;;;;;;76.97;36.60;;;12.80;99.90;;;;;;4960746;29;20483;-47
2021/03/26 07:54:58;;;;;;;60.00;35.90;;;12.90;99.90;;;;;;4957737;29;20792;-47
2021/03/26 07:57:51;;;;;;;59.50;33.20;;;13.10;99.90;;;;;;4975268;28;20942;-59
2021/03/26 08:00:37;;;;;;;64.53;36.23;;;13.30;99.90;;;;;;4983144;28;20783;-51
2021/03/26 08:03:29;;;;;;;70.87;36.00;;;13.50;99.90;;;;;;4978352;28;20763;-46
2021/03/26 08:06:11;;;;;;;65.50;37.40;;;13.70;99.90;;;;;;4959718;28;20452;-47
2021/03/26 08:08:51;;;;;;;61.37;36.43;;;13.80;99.90;;;;;;4981879;28;20936;-46
2021/03/26 08:11:35;;;;;;;62.30;38.00;;;14.00;99.90;;;;;;4976400;28;20479;-47
2021/03/26 08:14:21;;;;;;;70.93;38.47;;;14.20;99.90;;;;;;4967293;28;20807;-49
2021/03/26 08:17:10;;;;;;;61.00;35.77;;;14.40;99.90;;;;;;4958396;29;20467;-49
2021/03/26 08:19:47;;;;;;;75.00;38.63;;;14.60;99.90;;;;;;4960673;29;20758;-47
2021/03/26 08:22:27;;;;;;;66.00;38.07;;;14.90;99.90;;;;;;4957376;28;20450;-48
2021/03/26 08:25:32;;;;;;;67.07;37.77;;;15.20;99.90;;;;;;4959096;28;20789;-46
2021/03/26 08:28:19;;;;;;;58.83;37.57;;;15.60;99.90;;;;;;4891895;29;20843;-50
2021/03/26 08:30:57;;;;;;;59.07;34.90;;;16.50;99.90;;;;;;4889513;29;20751;-47
2021/03/26 08:33:46;;;;;;;55.90;34.17;;;17.40;99.90;;;;;;4933113;29;20861;-51
2021/03/26 08:36:25;;;;;;;59.00;37.67;;;17.90;99.90;;;;;;4957614;29;20861;-46
2021/03/26 08:39:24;;;;;;;61.80;35.67;;;18.20;99.90;;;;;;4964416;28;21187;-47
2021/03/26 08:41:58;;;;;;;56.40;34.53;;;18.70;99.90;;;;;;4981628;28;20538;-51
2021/03/26 08:44:28;;;;;;;53.47;33.57;;;19.50;99.90;;;;;;4990755;28;20971;-54
2021/03/26 08:46:59;;;;;;;54.47;37.27;;;20.30;99.90;;;;;;4975849;28;20532;-54
2021/03/26 08:49:43;;;;;;;54.13;35.30;;;21.00;98.30;;;;;;4983749;28;20944;-53
2021/03/26 08:52:42;;;;;;;62.53;38.00;;;21.70;93.90;;;;;;4988260;28;20536;-51
2021/03/26 08:55:38;;;;;;;53.33;34.23;;;22.20;90.40;;;;;;4953831;28;20830;-51
2021/03/26 08:58:37;;;;;;;49.83;36.50;;;22.40;84.00;;;;;;4985578;28;20761;-52
2021/03/26 09:01:33;;;;;;;59.17;36.10;;;22.50;80.90;;;;;;4979735;28;20815;-53
2021/03/26 09:04:14;;;;;;;56.83;35.80;;;22.70;78.80;;;;;;4987570;28;20776;-51
2021/03/26 09:06:57;;;;;;;50.53;35.93;;;23.00;76.80;;;;;;4981078;28;20993;-55
2021/03/26 09:09:55;;;;;;;55.07;35.10;;;23.30;73.20;;;;;;4972970;28;20442;-47
2021/03/26 09:12:57;;;;;;;44.10;33.43;;;23.30;71.00;;;;;;4975966;28;20809;-49
2021/03/26 09:16:02;;;;;;;51.03;36.13;;;23.10;69.40;;;;;;4981406;28;20500;-51
2021/03/26 09:19:00;;;;;;;51.10;34.10;;;23.20;68.60;;;;;;4932771;29;20856;-50
2021/03/26 09:21:48;;;;;;;46.73;33.50;;;23.00;67.00;;;;;;4929454;29;20886;-52
2021/03/26 09:24:50;;;;;;;43.43;32.50;;;22.90;67.00;;;;;;4976627;28;20764;-47
2021/03/26 09:27:26;;;;;;;47.80;32.50;;;23.10;66.90;;;;;;4974996;28;20916;-51
2021/03/26 09:30:12;;;;;;;43.67;31.97;;;23.30;64.90;;;;;;4976430;28;20791;-52
2021/03/26 09:32:47;;;;;;;45.70;30.83;;;23.40;63.60;;;;;;4987524;28;20470;-52
2021/03/26 09:35:20;;;;;;;41.60;30.97;;;23.30;63.00;;;;;;4978815;28;20783;-53
2021/03/26 09:37:54;;;;;;;49.03;33.73;;;23.00;62.40;;;;;;4982417;28;20809;-50
2021/03/26 09:40:31;;;;;;;49.53;34.33;;;22.30;63.60;;;;;;4985714;28;20912;-50
2021/03/26 09:43:10;;;;;;;46.90;29.80;;;21.70;66.40;;;;;;4985352;28;20937;-48
2021/03/26 09:45:44;;;;;;;45.10;30.97;;;21.20;68.30;;;;;;4988034;28;20834;-51
2021/03/26 09:48:41;;;;;;;44.80;30.07;;;21.40;69.20;;;;;;4990096;28;20903;-50
2021/03/26 09:51:18;;;;;;;41.07;28.77;;;21.70;65.20;;;;;;4995358;28;20892;-52
2021/03/26 09:53:48;;;;;;;42.60;26.47;;;22.00;64.80;;;;;;4974445;28;20828;-51
2021/03/26 09:56:28;;;;;;;39.83;26.90;;;21.70;62.40;;;;;;4986728;28;21093;-52
2021/03/26 09:59:01;;;;;;;40.53;27.80;;;21.00;62.50;;;;;;4982530;28;20791;-52
2021/03/26 10:01:39;;;;;;;38.50;27.50;;;20.50;64.60;;;;;;4987599;28;20814;-50
2021/03/26 10:04:11;;;;;;;44.63;28.60;;;20.20;67.30;;;;;;4985919;28;20851;-51
2021/03/26 10:06:54;;;;;;;42.50;28.63;;;20.30;67.50;;;;;;4984061;28;20884;-54
2021/03/26 10:09:28;;;;;;;38.40;25.60;;;20.20;67.70;;;;;;4982586;28;20948;-54
2021/03/26 10:12:13;;;;;;;44.87;27.13;;;20.10;69.40;;;;;;4981257;28;21013;-52
2021/03/26 10:14:49;;;;;;;47.67;28.33;;;19.90;70.50;;;;;;4981306;28;20803;-54
2021/03/26 10:17:54;;;;;;;46.00;30.40;;;20.50;69.90;;;;;;4984923;28;20812;-53
2021/03/26 10:20:38;;;;;;;42.63;27.67;;;21.20;69.90;;;;;;4941446;28;20776;-55
2021/03/26 10:23:34;;;;;;;37.80;26.50;;;21.70;67.70;;;;;;4985023;28;21157;-53
2021/03/26 10:26:12;;;;;;;36.83;25.90;;;21.70;65.70;;;;;;4982893;28;20768;-55
2021/03/26 10:28:59;;;;;;;40.77;29.10;;;21.40;63.60;;;;;;4994101;28;20776;-50
2021/03/26 10:31:38;;;;;;;43.30;29.07;;;21.00;65.50;;;;;;4977016;28;20802;-55
2021/03/26 10:34:10;;;;;;;44.97;27.00;;;20.40;66.00;;;;;;4977467;28;20916;-52
2021/03/26 10:36:51;;;;;;;40.93;26.43;;;19.90;66.80;;;;;;4983585;28;20858;-52
2021/03/26 10:39:23;;;;;;;40.13;26.70;;;19.40;68.40;;;;;;4985875;28;20946;-56
2021/03/26 10:42:06;;;;;;;41.50;25.33;;;19.10;70.10;;;;;;4979484;28;20784;-53
2021/03/26 10:45:04;;;;;;;47.53;28.87;;;18.90;70.50;;;;;;4981792;28;20915;-52
2021/03/26 10:47:37;;;;;;;47.40;26.50;;;18.70;72.10;;;;;;4982805;28;20802;-53
2021/03/26 10:50:25;;;;;;;38.00;25.83;;;18.50;72.50;;;;;;5013547;23;20792;-54
2021/03/26 10:53:01;;;;;;;38.37;26.63;;;18.20;73.50;;;;;;4983575;28;20467;-56
2021/03/26 10:55:35;;;;;;;44.07;27.50;;;18.10;74.60;;;;;;4981379;28;20861;-52
2021/03/26 10:58:09;;;;;;;43.40;24.90;;;17.90;75.40;;;;;;4976662;28;20783;-57
2021/03/26 11:00:40;;;;;;;51.33;26.97;;;17.80;77.70;;;;;;4992715;28;20811;-57
2021/03/26 11:03:12;;;;;;;42.13;27.00;;;17.70;76.90;;;;;;4983094;28;21171;-54
2021/03/26 11:05:52;;;;;;;38.77;26.50;;;17.60;77.30;;;;;;4985539;28;20751;-54
2021/03/26 11:08:37;;;;;;;40.53;25.10;;;17.40;78.20;;;;;;4981235;28;20781;-54
2021/03/26 11:11:14;;;;;;;38.03;24.43;;;17.40;78.90;;;;;;4974620;28;21200;-52
2021/03/26 11:14:05;;;;;;;40.13;24.60;;;17.40;79.10;;;;;;4991827;28;20824;-58
2021/03/26 11:16:40;;;;;;;42.53;25.30;;;17.50;79.40;;;;;;4985608;28;20485;-56
2021/03/26 11:19:14;;;;;;;45.60;26.70;;;17.80;80.60;;;;;;4982079;28;20812;-55
2021/03/26 11:21:46;;;;;;;41.37;26.73;;;18.00;80.20;;;;;;4984173;28;20808;-57
2021/03/26 11:24:15;;;;;;;43.93;26.30;;;18.20;79.40;;;;;;4970683;28;20799;-56
2021/03/26 11:26:48;;;;;;;42.53;27.20;;;18.30;79.10;;;;;;4990528;28;20815;-53
2021/03/26 11:29:23;;;;;;;45.57;27.87;;;18.40;79.10;;;;;;4982772;28;20784;-55
2021/03/26 11:31:55;;;;;;;40.47;26.23;;;18.40;79.30;;;;;;4978550;28;21016;-56
2021/03/26 11:34:35;;;;;;;41.73;23.27;;;18.50;78.40;;;;;;4989464;28;20877;-58
2021/03/26 11:37:14;;;;;;;50.57;27.10;;;18.60;76.90;;;;;;4978675;28;20926;-54
2021/03/26 11:39:59;;;;;;;47.07;24.10;;;18.70;76.90;;;;;;4985841;28;20799;-55
2021/03/26 11:42:50;;;;;;;45.13;25.77;;;18.80;77.80;;;;;;4979972;28;20839;-55
2021/03/26 11:45:26;;;;;;;43.17;25.90;;;19.00;75.50;;;;;;4984423;28;20843;-56
2021/03/26 11:48:15;;;;;;;46.67;26.20;;;19.20;74.80;;;;;;4979457;28;20840;-53
2021/03/26 11:50:56;;;;;;;40.43;24.47;;;19.30;74.20;;;;;;4991600;28;20816;-58
2021/03/26 11:53:35;;;;;;;38.67;23.90;;;19.30;72.70;;;;;;4983913;28;21028;-58
2021/03/26 11:56:30;;;;;;;40.37;26.20;;;19.20;72.40;;;;;;4985941;28;20458;-56
2021/03/26 11:59:27;;;;;;;49.60;27.93;;;18.90;72.50;;;;;;4985299;28;20790;-57
2021/03/26 12:02:03;;;;;;;44.53;26.87;;;18.90;74.60;;;;;;4976892;28;20977;-57
2021/03/26 12:04:37;;;;;;;43.47;24.40;;;18.90;74.10;;;;;;4975254;28;20796;-57
2021/03/26 12:07:11;;;;;;;38.60;23.93;;;18.80;74.30;;;;;;4983847;28;20803;-56
2021/03/26 12:09:47;;;;;;;43.07;26.00;;;18.70;75.50;;;;;;4988699;28;20794;-56
2021/03/26 12:12:22;;;;;;;42.87;24.00;;;18.70;75.20;;;;;;4984725;28;21226;-53
2021/03/26 12:14:58;;;;;;;46.37;25.67;;;18.80;75.90;;;;;;4976055;28;20875;-55
2021/03/26 12:17:41;;;;;;;45.90;26.03;;;18.80;75.10;;;;;;4979210;28;21278;-58
2021/03/26 12:20:25;;;;;;;46.63;27.10;;;18.80;76.10;;;;;;4976300;28;20818;-52
2021/03/26 12:23:32;;;;;;;39.10;24.77;;;18.70;76.00;;;;;;4987875;28;20832;-55
2021/03/26 12:26:11;;;;;;;42.80;27.93;;;18.40;76.70;;;;;;4988404;28;20841;-56
2021/03/26 12:29:10;;;;;;;43.67;25.80;;;18.30;77.70;;;;;;4977904;28;20800;-57
2021/03/26 12:31:48;;;;;;;43.17;25.90;;;18.20;79.30;;;;;;4924112;28;20465;-57
2021/03/26 12:34:44;;;;;;;39.83;26.57;;;18.10;79.10;;;;;;4990730;28;20885;-55
2021/03/26 12:37:18;;;;;;;40.13;25.27;;;18.10;78.90;;;;;;4990187;28;20942;-56
2021/03/26 12:39:49;;;;;;;45.53;26.90;;;18.00;80.50;;;;;;4968262;28;20785;-56
2021/03/26 12:42:23;;;;;;;44.00;27.50;;;17.90;80.60;;;;;;4986729;28;20831;-54
2021/03/26 12:44:59;;;;;;;45.57;24.60;;;17.60;81.50;;;;;;4982706;28;20843;-54
2021/03/26 12:47:32;;;;;;;42.63;25.40;;;17.50;81.60;;;;;;4982129;28;21073;-55
2021/03/26 12:50:07;;;;;;;48.23;26.77;;;17.40;83.60;;;;;;4992847;28;20454;-58
2021/03/26 12:52:48;;;;;;;40.20;25.40;;;17.20;83.10;;;;;;4979664;28;20824;-59
2021/03/26 12:55:24;;;;;;;46.70;27.00;;;17.00;84.00;;;;;;4985660;28;21035;-58
2021/03/26 12:58:17;;;;;;;43.03;26.03;;;16.90;85.10;;;;;;4987438;28;20794;-56
2021/03/26 13:00:50;;;;;;;42.33;26.60;;;16.70;85.60;;;;;;4964895;28;20800;-56
2021/03/26 13:03:31;;;;;;;44.83;27.97;;;16.70;86.50;;;;;;4979002;28;20445;-58
2021/03/26 13:06:08;;;;;;;49.40;26.40;;;16.70;87.50;;;;;;4981621;28;20482;-59
2021/03/26 13:08:40;;;;;;;40.23;25.23;;;16.60;88.70;;;;;;4984012;28;20799;-59
2021/03/26 13:11:22;;;;;;;51.93;26.53;;;16.50;90.00;;;;;;4987055;28;20490;-57
2021/03/26 13:14:05;;;;;;;45.50;27.97;;;16.30;91.20;;;;;;4980542;28;20828;-59
2021/03/26 13:16:43;;;;;;;48.70;27.00;;;16.20;93.30;;;;;;4985694;28;20772;-59
2021/03/26 13:19:25;;;;;;;46.17;26.20;;;16.10;94.40;;;;;;4993485;28;20803;-58
2021/03/26 13:22:18;;;;;;;49.20;27.87;;;16.10;95.20;;;;;;4972283;28;20771;-58
2021/03/26 13:24:57;;;;;;;43.47;25.43;;;16.10;95.10;;;;;;4989891;28;20951;-58
2021/03/26 13:27:51;;;;;;;43.57;26.03;;;16.20;95.30;;;;;;4988062;28;20447;-60
2021/03/26 13:30:30;;;;;;;39.37;24.53;;;16.20;96.00;;;;;;4989052;28;20447;-60